sensor_id;sensor_type;location;lat;lon;timestamp;temperature;humidity
81842;DHT22;71284;50.918;7.092;2023-07-30T00:00:36;19.90;66.70
81842;DHT22;71284;50.918;7.092;2023-07-30T00:03:02;19.80;66.70
81842;DHT22;71284;50.918;7.092;2023-07-30T00:05:29;19.70;67.40
81842;DHT22;71284;50.918;7.092;2023-07-30T00:07:56;19.60;68.20
81842;DHT22;71284;50.918;7.092;2023-07-30T00:10:22;19.60;68.00
81842;DHT22;71284;50.918;7.092;2023-07-30T00:12:49;19.60;66.80
81842;DHT22;71284;50.918;7.092;2023-07-30T00:15:15;19.60;67.00
81842;DHT22;71284;50.918;7.092;2023-07-30T00:17:42;19.60;67.00
81842;DHT22;71284;50.918;7.092;2023-07-30T00:20:09;19.60;67.20
81842;DHT22;71284;50.918;7.092;2023-07-30T00:22:35;19.60;66.70
81842;DHT22;71284;50.918;7.092;2023-07-30T00:25:02;19.60;66.30
81842;DHT22;71284;50.918;7.092;2023-07-30T00:27:28;19.60;66.60
81842;DHT22;71284;50.918;7.092;2023-07-30T00:29:55;19.50;66.60
81842;DHT22;71284;50.918;7.092;2023-07-30T00:32:22;19.40;66.40
81842;DHT22;71284;50.918;7.092;2023-07-30T00:34:48;19.30;66.80
81842;DHT22;71284;50.918;7.092;2023-07-30T00:37:15;19.30;67.30
81842;DHT22;71284;50.918;7.092;2023-07-30T00:39:41;19.20;66.80
81842;DHT22;71284;50.918;7.092;2023-07-30T00:42:08;19.20;67.10
81842;DHT22;71284;50.918;7.092;2023-07-30T00:44:34;19.30;66.90
81842;DHT22;71284;50.918;7.092;2023-07-30T00:47:01;19.30;66.80
81842;DHT22;71284;50.918;7.092;2023-07-30T00:49:28;19.30;66.50
81842;DHT22;71284;50.918;7.092;2023-07-30T00:51:54;19.30;66.40
81842;DHT22;71284;50.918;7.092;2023-07-30T00:54:21;19.20;66.30
81842;DHT22;71284;50.918;7.092;2023-07-30T00:56:50;19.20;66.20
81842;DHT22;71284;50.918;7.092;2023-07-30T00:59:15;19.10;66.40
81842;DHT22;71284;50.918;7.092;2023-07-30T01:01:41;18.90;67.20
81842;DHT22;71284;50.918;7.092;2023-07-30T01:04:08;19.00;67.00
81842;DHT22;71284;50.918;7.092;2023-07-30T01:06:35;19.00;66.90
81842;DHT22;71284;50.918;7.092;2023-07-30T01:09:01;19.00;66.60
81842;DHT22;71284;50.918;7.092;2023-07-30T01:11:28;18.90;67.00
81842;DHT22;71284;50.918;7.092;2023-07-30T01:13:54;18.80;67.10
81842;DHT22;71284;50.918;7.092;2023-07-30T01:16:21;18.90;67.00
81842;DHT22;71284;50.918;7.092;2023-07-30T01:18:47;19.00;66.30
81842;DHT22;71284;50.918;7.092;2023-07-30T01:21:14;19.00;66.40
81842;DHT22;71284;50.918;7.092;2023-07-30T01:23:41;19.00;66.30
81842;DHT22;71284;50.918;7.092;2023-07-30T01:26:08;19.00;66.40
81842;DHT22;71284;50.918;7.092;2023-07-30T01:28:36;19.00;66.40
81842;DHT22;71284;50.918;7.092;2023-07-30T01:31:01;18.90;66.70
81842;DHT22;71284;50.918;7.092;2023-07-30T01:33:28;18.90;67.40
81842;DHT22;71284;50.918;7.092;2023-07-30T01:35:55;18.90;66.70
81842;DHT22;71284;50.918;7.092;2023-07-30T01:38:21;19.00;66.50
81842;DHT22;71284;50.918;7.092;2023-07-30T01:40:48;19.00;66.60
81842;DHT22;71284;50.918;7.092;2023-07-30T01:43:14;19.10;66.30
81842;DHT22;71284;50.918;7.092;2023-07-30T01:45:41;19.10;66.00
81842;DHT22;71284;50.918;7.092;2023-07-30T01:48:08;19.10;66.30
81842;DHT22;71284;50.918;7.092;2023-07-30T01:50:34;19.10;66.30
81842;DHT22;71284;50.918;7.092;2023-07-30T01:53:01;19.00;66.70
81842;DHT22;71284;50.918;7.092;2023-07-30T01:55:27;18.90;66.90
81842;DHT22;71284;50.918;7.092;2023-07-30T01:57:54;19.00;66.90
81842;DHT22;71284;50.918;7.092;2023-07-30T02:00:20;19.10;67.00
81842;DHT22;71284;50.918;7.092;2023-07-30T02:02:47;19.10;67.10
81842;DHT22;71284;50.918;7.092;2023-07-30T02:05:13;18.90;68.30
81842;DHT22;71284;50.918;7.092;2023-07-30T02:07:40;18.90;68.10
81842;DHT22;71284;50.918;7.092;2023-07-30T02:10:07;19.00;67.90
81842;DHT22;71284;50.918;7.092;2023-07-30T02:12:33;19.00;67.80
81842;DHT22;71284;50.918;7.092;2023-07-30T02:15:00;19.10;67.40
81842;DHT22;71284;50.918;7.092;2023-07-30T02:17:27;19.30;68.00
81842;DHT22;71284;50.918;7.092;2023-07-30T02:19:53;19.20;67.40
81842;DHT22;71284;50.918;7.092;2023-07-30T02:22:20;19.30;67.00
81842;DHT22;71284;50.918;7.092;2023-07-30T02:24:46;19.40;66.80
81842;DHT22;71284;50.918;7.092;2023-07-30T02:27:13;19.50;67.00
81842;DHT22;71284;50.918;7.092;2023-07-30T02:29:40;19.60;66.40
81842;DHT22;71284;50.918;7.092;2023-07-30T02:32:06;19.60;66.50
81842;DHT22;71284;50.918;7.092;2023-07-30T02:34:33;19.60;66.60
81842;DHT22;71284;50.918;7.092;2023-07-30T02:37:00;19.60;66.80
81842;DHT22;71284;50.918;7.092;2023-07-30T02:39:26;19.60;66.70
81842;DHT22;71284;50.918;7.092;2023-07-30T02:41:53;19.60;66.60
81842;DHT22;71284;50.918;7.092;2023-07-30T02:44:19;19.60;66.80
81842;DHT22;71284;50.918;7.092;2023-07-30T02:46:46;19.60;66.40
81842;DHT22;71284;50.918;7.092;2023-07-30T02:49:13;19.70;66.40
81842;DHT22;71284;50.918;7.092;2023-07-30T02:51:39;19.70;66.60
81842;DHT22;71284;50.918;7.092;2023-07-30T02:54:07;19.60;66.80
81842;DHT22;71284;50.918;7.092;2023-07-30T02:56:32;19.60;66.70
81842;DHT22;71284;50.918;7.092;2023-07-30T02:58:59;19.50;67.10
81842;DHT22;71284;50.918;7.092;2023-07-30T03:01:26;19.60;66.80
81842;DHT22;71284;50.918;7.092;2023-07-30T03:03:52;19.60;66.70
81842;DHT22;71284;50.918;7.092;2023-07-30T03:06:19;19.70;66.60
81842;DHT22;71284;50.918;7.092;2023-07-30T03:08:45;19.70;66.60
81842;DHT22;71284;50.918;7.092;2023-07-30T03:11:12;19.70;66.70
81842;DHT22;71284;50.918;7.092;2023-07-30T03:13:39;19.70;66.60
81842;DHT22;71284;50.918;7.092;2023-07-30T03:16:05;19.80;66.30
81842;DHT22;71284;50.918;7.092;2023-07-30T03:18:32;19.80;66.40
81842;DHT22;71284;50.918;7.092;2023-07-30T03:21:00;19.70;66.30
81842;DHT22;71284;50.918;7.092;2023-07-30T03:23:26;19.80;66.10
81842;DHT22;71284;50.918;7.092;2023-07-30T03:25:52;19.80;66.00
81842;DHT22;71284;50.918;7.092;2023-07-30T03:28:19;19.80;66.30
81842;DHT22;71284;50.918;7.092;2023-07-30T03:30:46;19.80;66.30
81842;DHT22;71284;50.918;7.092;2023-07-30T03:33:12;19.80;66.50
81842;DHT22;71284;50.918;7.092;2023-07-30T03:35:39;19.80;66.50
81842;DHT22;71284;50.918;7.092;2023-07-30T03:38:05;19.90;66.30
81842;DHT22;71284;50.918;7.092;2023-07-30T03:40:32;19.90;66.20
81842;DHT22;71284;50.918;7.092;2023-07-30T03:42:58;19.80;66.50
81842;DHT22;71284;50.918;7.092;2023-07-30T03:45:25;19.70;66.90
81842;DHT22;71284;50.918;7.092;2023-07-30T03:47:52;19.60;67.00
81842;DHT22;71284;50.918;7.092;2023-07-30T03:50:18;19.60;66.80
81842;DHT22;71284;50.918;7.092;2023-07-30T03:52:45;19.60;67.00
81842;DHT22;71284;50.918;7.092;2023-07-30T03:55:11;19.70;66.70
81842;DHT22;71284;50.918;7.092;2023-07-30T03:57:38;19.80;66.30
81842;DHT22;71284;50.918;7.092;2023-07-30T04:00:06;19.80;66.60
81842;DHT22;71284;50.918;7.092;2023-07-30T04:02:32;19.80;66.60
81842;DHT22;71284;50.918;7.092;2023-07-30T04:04:59;19.70;66.70
81842;DHT22;71284;50.918;7.092;2023-07-30T04:07:25;19.70;66.80
81842;DHT22;71284;50.918;7.092;2023-07-30T04:09:52;19.60;66.90
81842;DHT22;71284;50.918;7.092;2023-07-30T04:12:19;19.60;66.80
81842;DHT22;71284;50.918;7.092;2023-07-30T04:14:45;19.70;66.70
81842;DHT22;71284;50.918;7.092;2023-07-30T04:17:12;19.70;67.40
81842;DHT22;71284;50.918;7.092;2023-07-30T04:19:38;19.80;66.30
81842;DHT22;71284;50.918;7.092;2023-07-30T04:22:05;19.80;66.00
81842;DHT22;71284;50.918;7.092;2023-07-30T04:24:31;19.90;66.00
81842;DHT22;71284;50.918;7.092;2023-07-30T04:27:00;19.90;66.00
81842;DHT22;71284;50.918;7.092;2023-07-30T04:29:25;19.80;65.90
81842;DHT22;71284;50.918;7.092;2023-07-30T04:31:51;19.90;65.60
81842;DHT22;71284;50.918;7.092;2023-07-30T04:34:18;19.90;65.60
81842;DHT22;71284;50.918;7.092;2023-07-30T04:36:44;19.90;66.00
81842;DHT22;71284;50.918;7.092;2023-07-30T04:39:11;20.00;65.60
81842;DHT22;71284;50.918;7.092;2023-07-30T04:41:38;19.90;65.80
81842;DHT22;71284;50.918;7.092;2023-07-30T04:44:04;19.90;65.90
81842;DHT22;71284;50.918;7.092;2023-07-30T04:46:31;19.90;66.10
81842;DHT22;71284;50.918;7.092;2023-07-30T04:48:57;19.90;64.90
81842;DHT22;71284;50.918;7.092;2023-07-30T04:51:24;19.90;64.80
81842;DHT22;71284;50.918;7.092;2023-07-30T04:53:51;19.90;64.70
81842;DHT22;71284;50.918;7.092;2023-07-30T04:56:17;20.00;64.50
81842;DHT22;71284;50.918;7.092;2023-07-30T04:58:44;20.10;64.40
81842;DHT22;71284;50.918;7.092;2023-07-30T05:01:11;20.10;64.40
81842;DHT22;71284;50.918;7.092;2023-07-30T05:03:38;20.10;64.90
81842;DHT22;71284;50.918;7.092;2023-07-30T05:06:04;20.00;61.80
81842;DHT22;71284;50.918;7.092;2023-07-30T05:08:31;19.90;62.90
81842;DHT22;71284;50.918;7.092;2023-07-30T05:10:57;20.00;63.20
81842;DHT22;71284;50.918;7.092;2023-07-30T05:13:24;19.90;60.90
81842;DHT22;71284;50.918;7.092;2023-07-30T05:15:51;19.90;62.40
81842;DHT22;71284;50.918;7.092;2023-07-30T05:18:17;20.00;60.20
81842;DHT22;71284;50.918;7.092;2023-07-30T05:20:45;20.00;58.30
81842;DHT22;71284;50.918;7.092;2023-07-30T05:23:10;19.80;59.40
81842;DHT22;71284;50.918;7.092;2023-07-30T05:25:37;19.90;59.80
81842;DHT22;71284;50.918;7.092;2023-07-30T05:28:04;20.10;61.10
81842;DHT22;71284;50.918;7.092;2023-07-30T05:30:30;20.20;59.70
81842;DHT22;71284;50.918;7.092;2023-07-30T05:32:57;20.20;60.20
81842;DHT22;71284;50.918;7.092;2023-07-30T05:35:23;20.20;59.80
81842;DHT22;71284;50.918;7.092;2023-07-30T05:37:50;20.20;56.70
81842;DHT22;71284;50.918;7.092;2023-07-30T05:40:17;20.20;56.20
81842;DHT22;71284;50.918;7.092;2023-07-30T05:42:43;20.20;57.60
81842;DHT22;71284;50.918;7.092;2023-07-30T05:45:10;20.10;55.70
81842;DHT22;71284;50.918;7.092;2023-07-30T05:47:36;20.00;56.20
81842;DHT22;71284;50.918;7.092;2023-07-30T05:50:03;19.80;56.40
81842;DHT22;71284;50.918;7.092;2023-07-30T05:52:30;19.90;55.60
81842;DHT22;71284;50.918;7.092;2023-07-30T05:54:56;20.00;55.70
81842;DHT22;71284;50.918;7.092;2023-07-30T05:57:23;19.90;55.00
81842;DHT22;71284;50.918;7.092;2023-07-30T05:59:49;19.90;56.20
81842;DHT22;71284;50.918;7.092;2023-07-30T06:02:16;20.00;55.30
81842;DHT22;71284;50.918;7.092;2023-07-30T06:04:43;20.00;54.90
81842;DHT22;71284;50.918;7.092;2023-07-30T06:07:10;20.10;55.60
81842;DHT22;71284;50.918;7.092;2023-07-30T06:09:36;20.20;54.50
81842;DHT22;71284;50.918;7.092;2023-07-30T06:12:03;20.10;55.80
81842;DHT22;71284;50.918;7.092;2023-07-30T06:14:29;20.10;55.80
81842;DHT22;71284;50.918;7.092;2023-07-30T06:16:56;20.20;55.50
81842;DHT22;71284;50.918;7.092;2023-07-30T06:19:22;20.20;55.80
81842;DHT22;71284;50.918;7.092;2023-07-30T06:21:49;20.30;56.70
81842;DHT22;71284;50.918;7.092;2023-07-30T06:24:16;20.30;55.30
81842;DHT22;71284;50.918;7.092;2023-07-30T06:26:42;20.30;55.70
81842;DHT22;71284;50.918;7.092;2023-07-30T06:29:09;20.30;55.10
81842;DHT22;71284;50.918;7.092;2023-07-30T06:31:35;20.10;54.80
81842;DHT22;71284;50.918;7.092;2023-07-30T06:34:02;20.10;56.10
81842;DHT22;71284;50.918;7.092;2023-07-30T06:36:28;20.20;57.00
81842;DHT22;71284;50.918;7.092;2023-07-30T06:38:55;20.30;57.90
81842;DHT22;71284;50.918;7.092;2023-07-30T06:41:22;20.30;58.10
81842;DHT22;71284;50.918;7.092;2023-07-30T06:43:48;20.30;57.60
81842;DHT22;71284;50.918;7.092;2023-07-30T06:46:15;20.30;57.60
81842;DHT22;71284;50.918;7.092;2023-07-30T06:48:41;20.40;57.50
81842;DHT22;71284;50.918;7.092;2023-07-30T06:51:09;20.30;57.60
81842;DHT22;71284;50.918;7.092;2023-07-30T06:53:35;20.30;57.90
81842;DHT22;71284;50.918;7.092;2023-07-30T06:56:01;20.30;57.90
81842;DHT22;71284;50.918;7.092;2023-07-30T06:58:28;20.40;57.90
81842;DHT22;71284;50.918;7.092;2023-07-30T07:00:54;20.20;58.40
81842;DHT22;71284;50.918;7.092;2023-07-30T07:03:21;20.00;57.70
81842;DHT22;71284;50.918;7.092;2023-07-30T07:05:54;20.00;56.80
81842;DHT22;71284;50.918;7.092;2023-07-30T07:08:20;19.80;54.50
81842;DHT22;71284;50.918;7.092;2023-07-30T07:10:47;19.80;56.00
81842;DHT22;71284;50.918;7.092;2023-07-30T07:13:13;19.80;55.80
81842;DHT22;71284;50.918;7.092;2023-07-30T07:15:42;19.90;55.20
81842;DHT22;71284;50.918;7.092;2023-07-30T07:18:08;20.00;54.70
81842;DHT22;71284;50.918;7.092;2023-07-30T07:20:35;19.90;54.40
81842;DHT22;71284;50.918;7.092;2023-07-30T07:23:01;20.00;54.20
81842;DHT22;71284;50.918;7.092;2023-07-30T07:25:28;20.00;54.10
81842;DHT22;71284;50.918;7.092;2023-07-30T07:27:55;20.20;55.00
81842;DHT22;71284;50.918;7.092;2023-07-30T07:30:21;20.30;55.50
81842;DHT22;71284;50.918;7.092;2023-07-30T07:32:48;20.40;56.30
81842;DHT22;71284;50.918;7.092;2023-07-30T07:35:16;20.50;57.10
81842;DHT22;71284;50.918;7.092;2023-07-30T07:37:43;20.50;53.70
81842;DHT22;71284;50.918;7.092;2023-07-30T07:40:09;20.50;55.10
81842;DHT22;71284;50.918;7.092;2023-07-30T07:42:37;20.60;55.20
81842;DHT22;71284;50.918;7.092;2023-07-30T07:45:03;20.50;53.90
81842;DHT22;71284;50.918;7.092;2023-07-30T07:47:30;20.50;54.70
81842;DHT22;71284;50.918;7.092;2023-07-30T07:49:56;20.50;54.90
81842;DHT22;71284;50.918;7.092;2023-07-30T07:52:23;20.50;53.60
81842;DHT22;71284;50.918;7.092;2023-07-30T07:54:49;20.60;54.20
81842;DHT22;71284;50.918;7.092;2023-07-30T07:57:16;20.60;53.40
81842;DHT22;71284;50.918;7.092;2023-07-30T07:59:43;20.70;54.00
81842;DHT22;71284;50.918;7.092;2023-07-30T08:02:09;20.70;53.50
81842;DHT22;71284;50.918;7.092;2023-07-30T08:04:36;20.50;53.80
81842;DHT22;71284;50.918;7.092;2023-07-30T08:07:02;20.50;54.10
81842;DHT22;71284;50.918;7.092;2023-07-30T08:09:29;20.60;52.90
81842;DHT22;71284;50.918;7.092;2023-07-30T08:11:56;20.30;54.20
81842;DHT22;71284;50.918;7.092;2023-07-30T08:14:23;20.20;54.40
81842;DHT22;71284;50.918;7.092;2023-07-30T08:16:49;20.00;54.80
81842;DHT22;71284;50.918;7.092;2023-07-30T08:19:16;20.20;54.90
81842;DHT22;71284;50.918;7.092;2023-07-30T08:21:42;20.30;54.00
81842;DHT22;71284;50.918;7.092;2023-07-30T08:24:09;20.50;54.20
81842;DHT22;71284;50.918;7.092;2023-07-30T08:26:36;20.30;54.20
81842;DHT22;71284;50.918;7.092;2023-07-30T08:29:02;20.50;54.70
81842;DHT22;71284;50.918;7.092;2023-07-30T08:31:29;20.70;53.70
81842;DHT22;71284;50.918;7.092;2023-07-30T08:33:55;20.90;53.40
81842;DHT22;71284;50.918;7.092;2023-07-30T08:36:22;21.00;53.40
81842;DHT22;71284;50.918;7.092;2023-07-30T08:38:49;21.10;53.00
81842;DHT22;71284;50.918;7.092;2023-07-30T08:41:15;21.30;53.00
81842;DHT22;71284;50.918;7.092;2023-07-30T08:43:42;21.30;51.80
81842;DHT22;71284;50.918;7.092;2023-07-30T08:46:08;21.30;52.30
81842;DHT22;71284;50.918;7.092;2023-07-30T08:48:35;20.70;53.20
81842;DHT22;71284;50.918;7.092;2023-07-30T08:51:02;20.60;53.50
81842;DHT22;71284;50.918;7.092;2023-07-30T08:53:28;20.50;53.90
81842;DHT22;71284;50.918;7.092;2023-07-30T08:55:55;20.40;54.40
81842;DHT22;71284;50.918;7.092;2023-07-30T08:58:22;20.30;54.60
81842;DHT22;71284;50.918;7.092;2023-07-30T09:00:48;20.30;55.00
81842;DHT22;71284;50.918;7.092;2023-07-30T09:03:15;20.20;55.20
81842;DHT22;71284;50.918;7.092;2023-07-30T09:05:41;20.40;54.80
81842;DHT22;71284;50.918;7.092;2023-07-30T09:08:08;20.50;55.00
81842;DHT22;71284;50.918;7.092;2023-07-30T09:10:34;20.30;55.50
81842;DHT22;71284;50.918;7.092;2023-07-30T09:13:01;20.40;55.40
81842;DHT22;71284;50.918;7.092;2023-07-30T09:15:32;20.80;54.00
81842;DHT22;71284;50.918;7.092;2023-07-30T09:17:58;20.80;53.90
81842;DHT22;71284;50.918;7.092;2023-07-30T09:20:24;21.00;53.10
81842;DHT22;71284;50.918;7.092;2023-07-30T09:22:51;21.30;53.80
81842;DHT22;71284;50.918;7.092;2023-07-30T09:25:18;21.10;52.90
81842;DHT22;71284;50.918;7.092;2023-07-30T09:27:47;21.10;52.30
81842;DHT22;71284;50.918;7.092;2023-07-30T09:30:12;21.00;52.80
81842;DHT22;71284;50.918;7.092;2023-07-30T09:32:38;21.40;51.80
81842;DHT22;71284;50.918;7.092;2023-07-30T09:35:06;21.30;49.90
81842;DHT22;71284;50.918;7.092;2023-07-30T09:37:36;21.50;51.30
81842;DHT22;71284;50.918;7.092;2023-07-30T09:40:00;21.20;50.20
81842;DHT22;71284;50.918;7.092;2023-07-30T09:42:27;21.30;50.80
81842;DHT22;71284;50.918;7.092;2023-07-30T09:44:53;21.50;51.80
81842;DHT22;71284;50.918;7.092;2023-07-30T09:47:20;21.10;51.10
81842;DHT22;71284;50.918;7.092;2023-07-30T09:49:46;21.00;51.10
81842;DHT22;71284;50.918;7.092;2023-07-30T09:52:13;21.00;50.00
81842;DHT22;71284;50.918;7.092;2023-07-30T09:54:39;21.00;51.00
81842;DHT22;71284;50.918;7.092;2023-07-30T09:57:06;21.10;51.00
81842;DHT22;71284;50.918;7.092;2023-07-30T09:59:32;21.40;49.80
81842;DHT22;71284;50.918;7.092;2023-07-30T10:01:59;21.60;50.20
81842;DHT22;71284;50.918;7.092;2023-07-30T10:04:26;21.70;49.10
81842;DHT22;71284;50.918;7.092;2023-07-30T10:07:10;21.70;50.30
81842;DHT22;71284;50.918;7.092;2023-07-30T10:09:35;22.00;48.90
81842;DHT22;71284;50.918;7.092;2023-07-30T10:12:01;22.00;48.00
81842;DHT22;71284;50.918;7.092;2023-07-30T10:14:28;21.90;47.10
81842;DHT22;71284;50.918;7.092;2023-07-30T10:16:55;22.00;47.80
81842;DHT22;71284;50.918;7.092;2023-07-30T10:19:22;22.10;46.70
81842;DHT22;71284;50.918;7.092;2023-07-30T10:21:48;22.40;47.60
81842;DHT22;71284;50.918;7.092;2023-07-30T10:24:15;22.70;45.40
81842;DHT22;71284;50.918;7.092;2023-07-30T10:26:42;22.50;44.70
81842;DHT22;71284;50.918;7.092;2023-07-30T10:29:12;22.50;44.50
81842;DHT22;71284;50.918;7.092;2023-07-30T10:31:38;22.60;44.80
81842;DHT22;71284;50.918;7.092;2023-07-30T10:34:06;22.30;45.80
81842;DHT22;71284;50.918;7.092;2023-07-30T10:36:31;22.10;46.30
81842;DHT22;71284;50.918;7.092;2023-07-30T10:39:01;22.20;46.10
81842;DHT22;71284;50.918;7.092;2023-07-30T10:41:24;22.00;45.40
81842;DHT22;71284;50.918;7.092;2023-07-30T10:43:51;22.10;47.50
81842;DHT22;71284;50.918;7.092;2023-07-30T10:46:18;22.40;47.30
81842;DHT22;71284;50.918;7.092;2023-07-30T10:48:45;22.60;46.30
81842;DHT22;71284;50.918;7.092;2023-07-30T10:51:12;22.50;45.40
81842;DHT22;71284;50.918;7.092;2023-07-30T10:53:38;22.50;46.00
81842;DHT22;71284;50.918;7.092;2023-07-30T10:56:07;22.60;45.20
81842;DHT22;71284;50.918;7.092;2023-07-30T10:58:34;22.70;44.70
81842;DHT22;71284;50.918;7.092;2023-07-30T11:01:02;22.70;44.80
81842;DHT22;71284;50.918;7.092;2023-07-30T11:03:28;22.60;45.30
81842;DHT22;71284;50.918;7.092;2023-07-30T11:05:55;22.40;46.80
81842;DHT22;71284;50.918;7.092;2023-07-30T11:08:38;22.70;45.90
81842;DHT22;71284;50.918;7.092;2023-07-30T11:11:04;22.90;45.00
81842;DHT22;71284;50.918;7.092;2023-07-30T11:13:34;23.30;44.80
81842;DHT22;71284;50.918;7.092;2023-07-30T11:15:57;23.50;42.90
81842;DHT22;71284;50.918;7.092;2023-07-30T11:18:23;23.40;43.10
81842;DHT22;71284;50.918;7.092;2023-07-30T11:20:50;23.70;43.00
81842;DHT22;71284;50.918;7.092;2023-07-30T11:23:19;23.90;41.70
81842;DHT22;71284;50.918;7.092;2023-07-30T11:25:46;23.90;41.90
81842;DHT22;71284;50.918;7.092;2023-07-30T11:28:12;23.90;42.30
81842;DHT22;71284;50.918;7.092;2023-07-30T11:30:39;23.80;41.70
81842;DHT22;71284;50.918;7.092;2023-07-30T11:33:05;23.70;42.70
81842;DHT22;71284;50.918;7.092;2023-07-30T11:35:32;23.50;41.50
81842;DHT22;71284;50.918;7.092;2023-07-30T11:37:58;23.50;42.40
81842;DHT22;71284;50.918;7.092;2023-07-30T11:40:25;23.80;43.70
81842;DHT22;71284;50.918;7.092;2023-07-30T11:42:52;23.50;42.90
81842;DHT22;71284;50.918;7.092;2023-07-30T11:45:20;23.30;43.00
81842;DHT22;71284;50.918;7.092;2023-07-30T11:47:47;23.50;43.80
81842;DHT22;71284;50.918;7.092;2023-07-30T11:50:13;23.70;43.30
81842;DHT22;71284;50.918;7.092;2023-07-30T11:52:53;23.60;43.10
81842;DHT22;71284;50.918;7.092;2023-07-30T11:55:18;23.30;43.40
81842;DHT22;71284;50.918;7.092;2023-07-30T11:57:45;23.20;43.70
81842;DHT22;71284;50.918;7.092;2023-07-30T12:00:12;23.20;43.70
81842;DHT22;71284;50.918;7.092;2023-07-30T12:02:38;23.00;42.00
81842;DHT22;71284;50.918;7.092;2023-07-30T12:05:06;22.90;42.10
81842;DHT22;71284;50.918;7.092;2023-07-30T12:07:32;23.00;42.20
81842;DHT22;71284;50.918;7.092;2023-07-30T12:10:06;22.80;41.90
81842;DHT22;71284;50.918;7.092;2023-07-30T12:12:32;22.60;44.10
81842;DHT22;71284;50.918;7.092;2023-07-30T12:14:59;22.80;43.00
81842;DHT22;71284;50.918;7.092;2023-07-30T12:17:26;23.00;43.50
81842;DHT22;71284;50.918;7.092;2023-07-30T12:19:52;23.00;44.60
81842;DHT22;71284;50.918;7.092;2023-07-30T12:22:19;22.80;43.10
81842;DHT22;71284;50.918;7.092;2023-07-30T12:24:45;22.80;43.20
81842;DHT22;71284;50.918;7.092;2023-07-30T12:27:12;22.70;43.90
81842;DHT22;71284;50.918;7.092;2023-07-30T12:29:39;22.60;43.90
81842;DHT22;71284;50.918;7.092;2023-07-30T12:32:05;22.40;44.40
81842;DHT22;71284;50.918;7.092;2023-07-30T12:34:32;22.40;44.30
81842;DHT22;71284;50.918;7.092;2023-07-30T12:36:59;22.60;44.10
81842;DHT22;71284;50.918;7.092;2023-07-30T12:39:25;22.80;42.20
81842;DHT22;71284;50.918;7.092;2023-07-30T12:41:52;23.00;43.10
81842;DHT22;71284;50.918;7.092;2023-07-30T12:44:18;22.90;43.30
81842;DHT22;71284;50.918;7.092;2023-07-30T12:46:45;23.00;42.60
81842;DHT22;71284;50.918;7.092;2023-07-30T12:49:12;23.10;43.70
81842;DHT22;71284;50.918;7.092;2023-07-30T12:51:38;23.40;44.20
81842;DHT22;71284;50.918;7.092;2023-07-30T12:54:06;23.60;45.50
81842;DHT22;71284;50.918;7.092;2023-07-30T12:56:32;23.70;45.80
81842;DHT22;71284;50.918;7.092;2023-07-30T12:58:59;23.60;46.10
81842;DHT22;71284;50.918;7.092;2023-07-30T13:01:25;23.70;46.40
81842;DHT22;71284;50.918;7.092;2023-07-30T13:03:52;23.90;45.70
81842;DHT22;71284;50.918;7.092;2023-07-30T13:06:19;23.80;45.90
81842;DHT22;71284;50.918;7.092;2023-07-30T13:08:45;23.90;46.00
81842;DHT22;71284;50.918;7.092;2023-07-30T13:11:12;24.00;46.00
81842;DHT22;71284;50.918;7.092;2023-07-30T13:13:39;23.90;45.40
81842;DHT22;71284;50.918;7.092;2023-07-30T13:16:05;23.90;45.90
81842;DHT22;71284;50.918;7.092;2023-07-30T13:18:31;24.00;46.60
81842;DHT22;71284;50.918;7.092;2023-07-30T13:20:58;24.30;45.20
81842;DHT22;71284;50.918;7.092;2023-07-30T13:23:25;24.20;43.10
81842;DHT22;71284;50.918;7.092;2023-07-30T13:25:51;24.40;43.80
81842;DHT22;71284;50.918;7.092;2023-07-30T13:28:18;24.50;43.30
81842;DHT22;71284;50.918;7.092;2023-07-30T13:30:44;24.70;43.30
81842;DHT22;71284;50.918;7.092;2023-07-30T13:33:11;24.30;43.80
81842;DHT22;71284;50.918;7.092;2023-07-30T13:35:38;23.90;43.10
81842;DHT22;71284;50.918;7.092;2023-07-30T13:38:04;24.10;42.70
81842;DHT22;71284;50.918;7.092;2023-07-30T13:40:31;24.30;42.20
81842;DHT22;71284;50.918;7.092;2023-07-30T13:42:57;24.60;42.50
81842;DHT22;71284;50.918;7.092;2023-07-30T13:45:24;24.80;42.20
81842;DHT22;71284;50.918;7.092;2023-07-30T13:47:51;25.70;39.50
81842;DHT22;71284;50.918;7.092;2023-07-30T13:50:17;26.70;37.30
81842;DHT22;71284;50.918;7.092;2023-07-30T13:52:44;28.10;36.70
81842;DHT22;71284;50.918;7.092;2023-07-30T13:55:10;29.00;33.60
81842;DHT22;71284;50.918;7.092;2023-07-30T13:57:37;29.20;34.30
81842;DHT22;71284;50.918;7.092;2023-07-30T14:00:04;29.00;35.20
81842;DHT22;71284;50.918;7.092;2023-07-30T14:02:31;29.90;33.20
81842;DHT22;71284;50.918;7.092;2023-07-30T14:04:58;29.60;33.20
81842;DHT22;71284;50.918;7.092;2023-07-30T14:07:25;29.40;33.60
81842;DHT22;71284;50.918;7.092;2023-07-30T14:09:51;29.20;33.80
81842;DHT22;71284;50.918;7.092;2023-07-30T14:12:18;27.60;35.20
81842;DHT22;71284;50.918;7.092;2023-07-30T14:14:45;27.20;35.60
81842;DHT22;71284;50.918;7.092;2023-07-30T14:17:11;26.80;35.90
81842;DHT22;71284;50.918;7.092;2023-07-30T14:19:38;26.40;35.80
81842;DHT22;71284;50.918;7.092;2023-07-30T14:22:05;26.00;36.80
81842;DHT22;71284;50.918;7.092;2023-07-30T14:24:32;25.60;37.00
81842;DHT22;71284;50.918;7.092;2023-07-30T14:26:58;25.30;38.00
81842;DHT22;71284;50.918;7.092;2023-07-30T14:29:25;25.40;37.70
81842;DHT22;71284;50.918;7.092;2023-07-30T14:31:51;25.30;37.00
81842;DHT22;71284;50.918;7.092;2023-07-30T14:34:18;25.40;38.60
81842;DHT22;71284;50.918;7.092;2023-07-30T14:36:44;25.40;36.80
81842;DHT22;71284;50.918;7.092;2023-07-30T14:39:11;25.20;36.40
81842;DHT22;71284;50.918;7.092;2023-07-30T14:41:38;25.40;36.70
81842;DHT22;71284;50.918;7.092;2023-07-30T14:44:05;25.50;36.00
81842;DHT22;71284;50.918;7.092;2023-07-30T14:46:31;25.30;36.20
81842;DHT22;71284;50.918;7.092;2023-07-30T14:48:57;24.90;36.70
81842;DHT22;71284;50.918;7.092;2023-07-30T14:51:24;24.70;37.40
81842;DHT22;71284;50.918;7.092;2023-07-30T14:53:51;24.80;37.70
81842;DHT22;71284;50.918;7.092;2023-07-30T14:56:17;25.00;38.90
81842;DHT22;71284;50.918;7.092;2023-07-30T14:58:44;24.70;38.30
81842;DHT22;71284;50.918;7.092;2023-07-30T15:01:10;24.90;38.10
81842;DHT22;71284;50.918;7.092;2023-07-30T15:03:37;24.90;37.70
81842;DHT22;71284;50.918;7.092;2023-07-30T15:06:04;24.90;38.40
81842;DHT22;71284;50.918;7.092;2023-07-30T15:08:30;24.90;38.30
81842;DHT22;71284;50.918;7.092;2023-07-30T15:10:57;25.20;38.50
81842;DHT22;71284;50.918;7.092;2023-07-30T15:13:23;25.30;37.60
81842;DHT22;71284;50.918;7.092;2023-07-30T15:15:50;25.10;37.70
81842;DHT22;71284;50.918;7.092;2023-07-30T15:18:16;25.00;37.50
81842;DHT22;71284;50.918;7.092;2023-07-30T15:20:43;24.70;37.30
81842;DHT22;71284;50.918;7.092;2023-07-30T15:23:10;24.70;38.10
81842;DHT22;71284;50.918;7.092;2023-07-30T15:25:36;24.30;38.00